createdAt,value
2023-04-10T00:01:51.275Z,3.48
2023-04-10T00:04:19.667Z,3.43
2023-04-10T00:06:49.350Z,3.36
2023-04-10T00:09:19.655Z,3.32
2023-04-10T00:11:49.706Z,3.38
2023-04-10T00:14:23.094Z,3.34
2023-04-10T00:16:51.078Z,3.31
2023-04-10T00:19:19.613Z,3.25
2023-04-10T00:21:48.169Z,3.23
2023-04-10T00:24:16.459Z,3.17
2023-04-10T00:26:50.660Z,3.14
2023-04-10T00:29:19.560Z,3.08
2023-04-10T00:31:47.895Z,3.01
2023-04-10T00:34:16.236Z,2.96
2023-04-10T00:36:44.541Z,2.95
2023-04-10T00:39:15.491Z,2.93
2023-04-10T00:41:47.099Z,3.01
2023-04-10T00:44:16.768Z,3.07
2023-04-10T00:46:45.525Z,3.01
2023-04-10T00:49:16.762Z,3.01
2023-04-10T00:51:47.958Z,2.93
2023-04-10T00:54:16.694Z,2.94
2023-04-10T00:56:47.017Z,2.97
2023-04-10T00:59:16.942Z,2.95
2023-04-10T01:01:45.315Z,2.91
2023-04-10T01:04:17.693Z,2.81
2023-04-10T01:06:58.282Z,2.80
2023-04-10T01:09:36.504Z,2.71
2023-04-10T01:12:13.267Z,2.60
2023-04-10T01:14:51.896Z,2.55
2023-04-10T01:17:29.558Z,2.52
2023-04-10T01:20:08.401Z,2.50
2023-04-10T01:22:50.192Z,2.52
2023-04-10T01:25:39.613Z,2.52
2023-04-10T01:28:26.212Z,2.46
2023-04-10T01:31:00.590Z,2.51
2023-04-10T01:33:35.223Z,2.56
2023-04-10T01:36:08.712Z,2.57
2023-04-10T01:38:41.026Z,2.56
2023-04-10T01:41:11.897Z,2.55
2023-04-10T01:43:43.942Z,2.50
2023-04-10T01:46:14.031Z,2.48
2023-04-10T01:48:47.252Z,2.44
2023-04-10T01:51:16.957Z,2.52
2023-04-10T01:53:46.766Z,2.45
2023-04-10T01:56:16.568Z,2.40
2023-04-10T01:58:47.478Z,2.34
2023-04-10T02:01:29.077Z,2.30
2023-04-10T02:03:59.199Z,2.32
2023-04-10T02:06:38.643Z,2.32
2023-04-10T02:09:16.092Z,2.23
2023-04-10T02:11:50.741Z,2.31
2023-04-10T02:14:23.769Z,2.30
2023-04-10T02:16:57.118Z,2.31
2023-04-10T02:19:28.049Z,2.34
2023-04-10T02:21:59.589Z,2.29
2023-04-10T02:24:28.612Z,2.24
2023-04-10T02:26:57.842Z,2.21
2023-04-10T02:29:25.999Z,2.18
2023-04-10T02:31:55.592Z,2.21
2023-04-10T02:34:23.799Z,2.22
2023-04-10T02:36:52.256Z,2.32
2023-04-10T02:39:20.964Z,2.30
2023-04-10T02:45:20.568Z,2.26
2023-04-10T02:47:49.110Z,2.17
2023-04-10T02:50:20.147Z,2.18
2023-04-10T02:52:48.724Z,2.16
2023-04-10T02:55:16.960Z,2.14
2023-04-10T02:57:45.533Z,2.12
2023-04-10T03:00:16.941Z,1.95
2023-04-10T03:03:05.528Z,2.14
2023-04-10T03:05:42.587Z,2.14
2023-04-10T03:08:16.129Z,2.13
2023-04-10T03:10:46.291Z,2.06
2023-04-10T03:13:16.923Z,2.07
2023-04-10T03:15:45.223Z,2.01
2023-04-10T03:18:14.780Z,1.99
2023-04-10T03:20:45.533Z,1.97
2023-04-10T03:23:13.861Z,2.00
2023-04-10T03:25:44.890Z,2.06
2023-04-10T03:28:15.687Z,2.10
2023-04-10T03:30:43.805Z,2.15
2023-04-10T03:33:12.246Z,2.12
2023-04-10T03:35:42.091Z,2.14
2023-04-10T03:38:10.390Z,2.14
2023-04-10T03:40:38.556Z,2.10
2023-04-10T03:43:09.811Z,2.08
2023-04-10T03:45:38.009Z,2.04
2023-04-10T03:48:06.656Z,2.01
2023-04-10T03:50:46.414Z,1.99
2023-04-10T03:53:15.522Z,1.99
2023-04-10T03:55:47.000Z,2.00
2023-04-10T03:58:15.397Z,2.02
2023-04-10T04:00:43.693Z,2.03
2023-04-10T04:03:20.676Z,1.97
2023-04-10T04:05:56.261Z,1.90
2023-04-10T04:08:27.959Z,1.80
2023-04-10T04:11:12.582Z,1.78
2023-04-10T04:13:53.669Z,1.78
2023-04-10T04:16:40.881Z,1.73
2023-04-10T04:19:26.553Z,1.68
2023-04-10T04:22:28.746Z,1.66
2023-04-10T04:24:59.421Z,1.60
2023-04-10T04:27:52.096Z,1.61
2023-04-10T04:30:43.696Z,1.77
2023-04-10T04:33:35.270Z,1.96
2023-04-10T04:36:25.790Z,1.91
2023-04-10T04:39:18.569Z,1.84
2023-04-10T04:42:02.310Z,1.79
2023-04-10T04:45:02.245Z,1.73
2023-04-10T04:47:45.595Z,1.70
2023-04-10T04:50:29.546Z,1.75
2023-04-10T04:52:57.689Z,1.81
2023-04-10T04:55:35.990Z,1.82
2023-04-10T04:58:17.803Z,1.82
2023-04-10T05:01:19.270Z,1.89
2023-04-10T05:04:07.800Z,1.94
2023-04-10T05:06:54.614Z,2.04
2023-04-10T05:09:58.317Z,2.13
2023-04-10T05:12:43.240Z,2.20
2023-04-10T05:15:29.919Z,2.25
2023-04-10T05:18:23.825Z,2.36
2023-04-10T05:21:00.021Z,2.48
2023-04-10T05:23:46.284Z,2.66
2023-04-10T05:26:32.523Z,2.80
2023-04-10T05:29:20.360Z,2.94
2023-04-10T05:32:07.517Z,3.04
2023-04-10T05:34:46.642Z,3.21
2023-04-10T05:37:29.736Z,3.34
2023-04-10T05:40:05.709Z,3.48
2023-04-10T05:42:40.968Z,3.64
2023-04-10T05:45:30.916Z,3.83
2023-04-10T05:48:11.770Z,4.04
2023-04-10T05:51:01.358Z,4.27
2023-04-10T05:53:37.762Z,4.48
2023-04-10T05:56:26.399Z,4.73
2023-04-10T05:59:07.785Z,4.83
2023-04-10T06:01:57.923Z,5.12
2023-04-10T06:04:26.416Z,5.34
2023-04-10T06:09:44.398Z,5.82
2023-04-10T06:12:12.496Z,5.89
2023-04-10T06:14:42.106Z,6.09
2023-04-10T06:17:11.715Z,6.12
2023-04-10T06:19:39.874Z,6.42
2023-04-10T06:22:08.210Z,6.58
2023-04-10T06:24:36.427Z,6.62
2023-04-10T06:27:04.845Z,6.89
2023-04-10T06:29:32.951Z,7.10
2023-04-10T06:32:01.485Z,7.45
2023-04-10T06:34:34.179Z,7.41
2023-04-10T06:37:06.086Z,8.17
2023-04-10T06:39:39.342Z,8.64
2023-04-10T06:42:07.642Z,9.29
2023-04-10T06:44:46.203Z,9.82
2023-04-10T06:47:17.135Z,10.57
2023-04-10T06:49:47.048Z,11.98
2023-04-10T06:52:15.553Z,12.07
2023-04-10T06:54:46.327Z,12.34
2023-04-10T07:00:00.746Z,13.47
2023-04-10T07:02:29.139Z,13.02
2023-04-10T07:04:58.708Z,13.35
2023-04-10T07:07:27.221Z,14.20
2023-04-10T07:09:55.637Z,13.87
2023-04-10T07:12:24.194Z,14.22
2023-04-10T07:14:52.461Z,14.12
2023-04-10T07:17:20.813Z,15.65
2023-04-10T07:19:48.922Z,15.68
2023-04-10T07:22:18.664Z,15.89
2023-04-10T07:24:46.901Z,15.89
2023-04-10T07:27:15.439Z,16.74
2023-04-10T07:29:46.861Z,17.00
2023-04-10T07:32:15.437Z,15.10
2023-04-10T07:34:43.732Z,16.49
2023-04-10T07:37:11.907Z,17.28
2023-04-10T07:39:41.630Z,17.73
2023-04-10T07:42:11.044Z,17.69
2023-04-10T07:46:21.247Z,18.05
2023-04-10T07:48:49.850Z,18.95
2023-04-10T07:51:20.195Z,19.98
2023-04-10T07:53:48.765Z,20.24
2023-04-10T07:56:18.215Z,20.79
2023-04-10T07:58:46.780Z,18.75
2023-04-10T08:01:15.658Z,18.94
2023-04-10T08:03:47.527Z,19.25
2023-04-10T08:06:15.994Z,19.06
2023-04-10T08:08:44.464Z,18.26
2023-04-10T08:11:25.736Z,17.85
2023-04-10T08:13:54.524Z,19.05
2023-04-10T08:16:25.144Z,18.02
2023-04-10T08:18:56.750Z,20.02
2023-04-10T08:21:28.309Z,19.07
2023-04-10T08:23:58.435Z,20.60
2023-04-10T08:26:28.088Z,18.49
2023-04-10T08:28:59.180Z,19.75
2023-04-10T08:31:31.205Z,19.08
2023-04-10T08:34:00.911Z,20.02
2023-04-10T08:36:29.513Z,21.52
2023-04-10T08:38:57.803Z,20.17
2023-04-10T08:41:25.974Z,20.29
2023-04-10T08:43:54.850Z,20.02
2023-04-10T08:46:24.754Z,20.42
2023-04-10T08:48:56.164Z,22.01
2023-04-10T08:51:38.415Z,20.60
2023-04-10T08:54:09.176Z,21.07
2023-04-10T08:56:41.106Z,19.78
2023-04-10T08:59:09.946Z,20.57
2023-04-10T09:01:38.686Z,18.75
2023-04-10T09:04:13.148Z,19.40
2023-04-10T09:06:42.815Z,19.39
2023-04-10T09:09:13.331Z,20.32
2023-04-10T09:12:01.771Z,19.56
2023-04-10T09:14:32.129Z,19.56
2023-04-10T09:17:18.087Z,19.41
2023-04-10T09:19:47.952Z,19.46
2023-04-10T09:22:17.903Z,18.48
2023-04-10T09:24:56.783Z,19.27
2023-04-10T09:27:31.295Z,18.84
2023-04-10T09:30:01.377Z,18.05
2023-04-10T09:32:41.128Z,18.42
2023-04-10T09:35:10.677Z,17.20
2023-04-10T09:37:57.339Z,17.07
2023-04-10T09:40:54.893Z,17.07
2023-04-10T09:43:25.847Z,16.82
2023-04-10T09:45:58.876Z,16.69
2023-04-10T09:48:27.819Z,17.25
2023-04-10T09:50:56.823Z,17.39
2023-04-10T09:53:26.516Z,17.87
2023-04-10T09:55:55.670Z,18.58
2023-04-10T09:58:27.496Z,18.83
2023-04-10T10:00:55.976Z,18.85
2023-04-10T10:03:26.944Z,18.42
2023-04-10T10:05:56.288Z,18.80
2023-04-10T10:08:28.790Z,19.96
2023-04-10T10:11:00.488Z,20.29
2023-04-10T10:13:36.946Z,20.10
2023-04-10T10:16:10.355Z,19.71
2023-04-10T10:18:44.977Z,20.01
2023-04-10T10:21:17.515Z,19.73
2023-04-10T10:23:53.805Z,19.46
2023-04-10T10:26:25.422Z,21.26
2023-04-10T10:28:54.874Z,20.36
2023-04-10T10:31:24.615Z,20.44
2023-04-10T10:33:53.768Z,20.90
2023-04-10T10:36:23.768Z,21.93
2023-04-10T10:39:03.502Z,21.20
2023-04-10T10:41:37.556Z,22.54
2023-04-10T10:44:13.410Z,22.21
2023-04-10T10:46:48.812Z,22.52
2023-04-10T10:49:17.041Z,21.70
2023-04-10T10:51:48.129Z,22.46
2023-04-10T10:54:31.777Z,21.80
2023-04-10T10:57:03.083Z,21.52
2023-04-10T10:59:58.949Z,20.33
2023-04-10T11:02:27.590Z,20.88
2023-04-10T11:04:55.952Z,21.01
2023-04-10T11:08:03.173Z,20.23
2023-04-10T11:11:03.663Z,20.85
2023-04-10T11:13:32.499Z,21.46
2023-04-10T11:16:05.319Z,19.77
2023-04-10T11:19:13.045Z,20.39
2023-04-10T11:22:15.977Z,19.44
2023-04-10T11:24:54.049Z,20.13
2023-04-10T11:27:52.757Z,20.78
2023-04-10T11:30:32.747Z,20.34
2023-04-10T11:33:02.228Z,18.94
2023-04-10T11:35:34.962Z,19.16
2023-04-10T11:38:14.731Z,18.81
2023-04-10T11:40:57.141Z,18.96
2023-04-10T11:43:27.066Z,18.88
2023-04-10T11:46:06.379Z,18.79
2023-04-10T11:48:35.359Z,18.65
2023-04-10T11:51:14.952Z,18.25
2023-04-10T11:53:43.469Z,18.26
2023-04-10T11:56:19.642Z,18.67
2023-04-10T11:58:54.908Z,19.02
2023-04-10T12:01:24.681Z,19.56
2023-04-10T12:03:53.043Z,20.16
2023-04-10T12:06:27.830Z,19.90
2023-04-10T12:08:56.812Z,20.22
2023-04-10T12:11:26.671Z,19.59
2023-04-10T12:13:57.696Z,19.44
2023-04-10T12:16:27.519Z,18.78
2023-04-10T12:18:56.799Z,19.19
2023-04-10T12:21:28.140Z,19.78
2023-04-10T12:23:58.972Z,20.33
2023-04-10T12:26:27.573Z,20.26
2023-04-10T12:29:00.461Z,20.11
2023-04-10T12:31:29.534Z,20.79
2023-04-10T12:33:58.630Z,20.67
2023-04-10T12:36:30.203Z,20.40
2023-04-10T12:38:59.420Z,20.11
2023-04-10T12:41:32.560Z,19.22
2023-04-10T12:47:20.993Z,20.09
2023-04-10T12:50:10.840Z,19.80
2023-04-10T12:53:06.529Z,18.84
2023-04-10T12:55:34.847Z,18.63
2023-04-10T12:58:17.773Z,18.09
2023-04-10T13:00:46.128Z,18.60
2023-04-10T13:03:15.986Z,18.76
2023-04-10T13:05:44.505Z,19.18
2023-04-10T13:08:13.121Z,19.28
2023-04-10T13:10:42.231Z,19.08
2023-04-10T13:13:13.236Z,19.04
2023-04-10T13:15:41.883Z,18.81
2023-04-10T13:18:11.601Z,19.00
2023-04-10T13:20:43.529Z,19.07
2023-04-10T13:23:14.070Z,18.89
2023-04-10T13:25:43.035Z,18.62
2023-04-10T13:28:15.959Z,18.59
2023-04-10T13:30:44.162Z,18.61
2023-04-10T13:33:14.894Z,18.69
2023-04-10T13:35:44.451Z,18.76
2023-04-10T13:38:12.763Z,18.82
2023-04-10T13:40:43.322Z,18.86
2023-04-10T13:43:11.685Z,19.22
2023-04-10T13:45:39.807Z,19.03
2023-04-10T13:48:10.760Z,18.53
2023-04-10T13:50:39.139Z,18.75
2023-04-10T13:53:11.501Z,18.57
2023-04-10T13:55:43.661Z,18.90
2023-04-10T13:58:12.288Z,18.74
2023-04-10T14:00:40.514Z,18.65
2023-04-10T14:03:12.372Z,18.53
2023-04-10T14:05:43.397Z,18.62
2023-04-10T14:08:15.975Z,19.01
2023-04-10T14:10:44.121Z,18.70
2023-04-10T14:13:12.310Z,18.86
2023-04-10T14:15:40.705Z,19.34
2023-04-10T14:18:09.203Z,19.27
2023-04-10T14:20:37.687Z,19.17
2023-04-10T14:23:06.776Z,18.66
2023-04-10T14:25:36.179Z,18.96
2023-04-10T14:28:07.210Z,19.09
2023-04-10T14:30:35.442Z,18.80
2023-04-10T14:33:06.550Z,18.83
2023-04-10T14:35:34.936Z,19.09
2023-04-10T14:38:03.692Z,19.22
2023-04-10T14:40:32.139Z,19.17
2023-04-10T14:43:04.834Z,19.16
2023-04-10T14:45:35.895Z,19.28
2023-04-10T14:48:08.667Z,19.10
2023-04-10T14:50:36.863Z,18.93
2023-04-10T14:53:06.305Z,19.02
2023-04-10T14:55:39.470Z,19.15
2023-04-10T14:58:11.357Z,19.13
2023-04-10T15:00:40.461Z,18.75
2023-04-10T15:03:08.948Z,18.86
2023-04-10T15:05:37.173Z,19.00
2023-04-10T15:08:07.684Z,18.61
2023-04-10T15:10:43.381Z,18.40
2023-04-10T15:13:15.850Z,18.51
2023-04-10T15:15:45.888Z,18.65
2023-04-10T15:18:14.447Z,18.65
2023-04-10T15:20:42.720Z,18.68
2023-04-10T15:23:11.653Z,18.59
2023-04-10T15:25:39.784Z,18.39
2023-04-10T15:28:10.670Z,18.06
2023-04-10T15:30:43.926Z,18.25
2023-04-10T15:33:13.557Z,18.38
2023-04-10T15:35:41.758Z,18.43
2023-04-10T15:38:13.330Z,18.20
2023-04-10T15:40:44.443Z,18.25
2023-04-10T15:43:13.577Z,18.37
2023-04-10T15:45:43.241Z,17.90
2023-04-10T15:48:11.518Z,17.65
2023-04-10T15:50:40.554Z,17.65
2023-04-10T15:53:08.796Z,17.68
2023-04-10T15:55:40.642Z,17.69
2023-04-10T15:58:08.757Z,17.75
2023-04-10T16:00:39.418Z,17.49
2023-04-10T16:03:09.155Z,17.36
2023-04-10T16:05:37.557Z,17.33
2023-04-10T16:08:08.695Z,17.26
2023-04-10T16:10:37.009Z,17.32
2023-04-10T16:13:06.727Z,17.18
2023-04-10T16:15:37.182Z,17.29
2023-04-10T16:18:06.679Z,17.29
2023-04-10T16:20:43.449Z,17.23
2023-04-10T16:23:13.920Z,17.18
2023-04-10T16:25:42.270Z,17.12
2023-04-10T16:28:12.741Z,17.07
2023-04-10T16:30:41.058Z,17.10
2023-04-10T16:33:11.823Z,17.01
2023-04-10T16:35:41.817Z,16.89
2023-04-10T16:38:09.999Z,16.83
2023-04-10T16:40:40.161Z,16.73
2023-04-10T16:43:11.194Z,16.68
2023-04-10T16:45:39.652Z,16.54
2023-04-10T16:48:07.918Z,16.48
2023-04-10T16:50:36.879Z,16.45
2023-04-10T16:53:06.360Z,16.39
2023-04-10T16:55:35.218Z,16.34
2023-04-10T16:58:03.402Z,16.24
2023-04-10T17:00:34.104Z,16.22
2023-04-10T17:03:02.627Z,16.07
2023-04-10T17:05:36.752Z,16.09
2023-04-10T17:08:06.631Z,16.06
2023-04-10T17:10:35.041Z,16.06
2023-04-10T17:13:05.600Z,16.01
2023-04-10T17:15:34.021Z,15.98
2023-04-10T17:18:02.724Z,15.95
2023-04-10T17:20:31.416Z,15.90
2023-04-10T17:22:59.725Z,15.88
2023-04-10T17:25:32.675Z,15.83
2023-04-10T17:28:01.515Z,15.79
2023-04-10T17:30:32.489Z,15.76
2023-04-10T17:33:01.641Z,15.69
2023-04-10T17:35:30.380Z,15.60
2023-04-10T17:38:01.037Z,15.48
2023-04-10T17:40:33.164Z,15.42
2023-04-10T17:43:06.241Z,15.36
2023-04-10T17:48:24.033Z,15.32
2023-04-10T17:50:52.670Z,15.26
2023-04-10T17:53:21.283Z,15.25
2023-04-10T17:55:49.746Z,15.19
2023-04-10T17:58:18.071Z,15.14
2023-04-10T18:00:47.827Z,15.09
2023-04-10T18:03:16.005Z,15.05
2023-04-10T18:05:46.065Z,15.04
2023-04-10T18:08:14.547Z,15.01
2023-04-10T18:10:43.099Z,14.96
2023-04-10T18:13:13.757Z,14.96
2023-04-10T18:15:44.679Z,14.90
2023-04-10T18:18:15.967Z,14.86
2023-04-10T18:20:46.002Z,14.99
2023-04-10T18:23:14.257Z,15.00
2023-04-10T18:25:42.682Z,14.95
2023-04-10T18:28:17.001Z,14.88
2023-04-10T18:30:46.709Z,14.83
2023-04-10T18:33:22.408Z,14.78
2023-04-10T18:35:52.909Z,14.75
2023-04-10T18:38:21.324Z,14.73
2023-04-10T18:40:49.555Z,14.71
2023-04-10T18:43:20.354Z,14.65
2023-04-10T18:45:51.780Z,14.54
2023-04-10T18:48:22.651Z,14.56
2023-04-10T18:50:54.954Z,14.48
2023-04-10T18:53:27.024Z,14.52
2023-04-10T18:55:56.349Z,14.49
2023-04-10T18:58:24.700Z,14.40
2023-04-10T19:00:55.530Z,14.38
2023-04-10T19:03:26.801Z,14.33
2023-04-10T19:05:58.836Z,14.39
2023-04-10T19:08:27.474Z,14.32
2023-04-10T19:10:56.071Z,14.24
2023-04-10T19:13:24.607Z,14.26
2023-04-10T19:15:52.957Z,14.24
2023-04-10T19:18:21.110Z,14.27
2023-04-10T19:20:52.958Z,14.22
2023-04-10T19:23:23.435Z,14.19
2023-04-10T19:25:55.264Z,14.13
2023-04-10T19:28:24.478Z,14.08
2023-04-10T19:30:53.097Z,13.89
2023-04-10T19:33:23.447Z,13.69
2023-04-10T19:35:52.329Z,13.58
2023-04-10T19:38:24.079Z,13.38
2023-04-10T19:40:52.463Z,13.31
2023-04-10T19:43:21.107Z,13.31
2023-04-10T19:45:52.976Z,13.35
2023-04-10T19:48:23.440Z,13.33
2023-04-10T19:50:54.540Z,13.46
2023-04-10T19:53:24.176Z,13.41
2023-04-10T19:55:52.428Z,13.38
2023-04-10T19:58:38.893Z,13.37
2023-04-10T20:01:10.477Z,13.32
2023-04-10T20:03:38.862Z,13.37
2023-04-10T20:06:08.822Z,13.41
2023-04-10T20:08:38.677Z,13.45
2023-04-10T20:11:07.480Z,13.47
2023-04-10T20:13:35.907Z,13.60
2023-04-10T20:16:04.336Z,13.56
2023-04-10T20:18:35.045Z,13.54
2023-04-10T20:21:04.679Z,13.46
2023-04-10T20:23:32.966Z,13.48
2023-04-10T20:26:03.252Z,13.44
2023-04-10T20:28:33.850Z,13.46
2023-04-10T20:31:04.639Z,13.42
2023-04-10T20:33:32.958Z,13.38
2023-04-10T20:36:01.238Z,13.36
2023-04-10T20:38:29.850Z,13.38
2023-04-10T20:41:01.916Z,13.39
2023-04-10T20:43:30.359Z,13.37
2023-04-10T20:46:03.743Z,13.32
2023-04-10T20:48:32.502Z,13.39
2023-04-10T20:51:00.813Z,13.34
2023-04-10T20:53:30.116Z,13.35
2023-04-10T20:55:58.290Z,13.38
2023-04-10T20:58:28.060Z,13.39
2023-04-10T21:00:57.065Z,13.36
2023-04-10T21:03:25.860Z,13.38
2023-04-10T21:05:55.806Z,13.42
2023-04-10T21:08:24.253Z,13.38
2023-04-10T21:10:52.405Z,13.42
2023-04-10T21:13:23.711Z,13.35
2023-04-10T21:15:53.274Z,13.40
2023-04-10T21:18:23.957Z,13.44
2023-04-10T21:20:54.364Z,13.40
2023-04-10T21:23:22.576Z,13.48
2023-04-10T21:25:52.788Z,13.49
2023-04-10T21:28:23.483Z,13.47
2023-04-10T21:30:52.894Z,13.47
2023-04-10T21:33:21.165Z,13.49
2023-04-10T21:35:49.264Z,13.62
2023-04-10T21:38:17.662Z,13.69
2023-04-10T21:40:51.797Z,13.86
2023-04-10T21:43:23.057Z,13.93
2023-04-10T21:45:53.889Z,13.92
2023-04-10T21:48:23.778Z,13.94
2023-04-10T21:50:52.892Z,13.93
2023-04-10T21:53:21.258Z,13.97
2023-04-10T21:55:50.161Z,13.99
2023-04-10T21:58:18.521Z,13.90
2023-04-10T22:00:47.532Z,13.85
2023-04-10T22:03:16.790Z,13.74
2023-04-10T22:05:50.400Z,13.70
2023-04-10T22:08:20.136Z,13.64
2023-04-10T22:10:48.340Z,13.60
2023-04-10T22:13:29.504Z,13.54
2023-04-10T22:15:59.211Z,13.53
2023-04-10T22:18:32.866Z,13.55
2023-04-10T22:21:02.575Z,13.49
2023-04-10T22:23:30.761Z,13.52
2023-04-10T22:26:00.840Z,13.72
2023-04-10T22:28:29.383Z,13.62
2023-04-10T22:30:57.829Z,13.36
2023-04-10T22:33:26.090Z,13.31
2023-04-10T22:35:54.380Z,13.25
2023-04-10T22:38:26.754Z,13.17
2023-04-10T22:40:55.453Z,13.16
2023-04-10T22:43:23.622Z,13.01
2023-04-10T22:49:21.942Z,12.67
2023-04-10T22:51:50.107Z,12.58
2023-04-10T22:54:20.897Z,12.49
2023-04-10T22:56:49.611Z,12.43
2023-04-10T22:59:18.473Z,12.31
2023-04-10T23:01:46.738Z,12.22
2023-04-10T23:04:15.099Z,12.12
2023-04-10T23:06:44.591Z,11.89
2023-04-10T23:09:12.888Z,11.69
2023-04-10T23:11:41.017Z,11.39
2023-04-10T23:14:09.328Z,11.38
2023-04-10T23:16:37.923Z,11.32
2023-04-10T23:19:08.521Z,11.25
2023-04-10T23:21:36.848Z,11.24
2023-04-10T23:24:06.776Z,11.26
2023-04-10T23:26:34.951Z,11.27
2023-04-10T23:29:03.196Z,11.31
2023-04-10T23:31:31.897Z,11.38
2023-04-10T23:34:00.015Z,11.45
2023-04-10T23:36:31.610Z,11.46
2023-04-10T23:38:59.798Z,11.48
2023-04-10T23:41:32.437Z,11.49
2023-04-10T23:44:00.569Z,11.48
2023-04-10T23:46:28.657Z,11.23
2023-04-10T23:48:56.804Z,11.14
2023-04-10T23:51:24.934Z,10.96
2023-04-10T23:53:53.062Z,10.84
2023-04-10T23:56:28.161Z,10.72
2023-04-10T23:58:57.889Z,10.64
